createdAt,value
2022-12-29T00:01:19.634Z,5.73
2022-12-29T00:04:08.849Z,5.43
2022-12-29T00:06:58.120Z,5.03
2022-12-29T00:09:43.294Z,5.17
2022-12-29T00:12:28.321Z,5.93
2022-12-29T00:15:13.347Z,4.73
2022-12-29T00:17:58.734Z,5.27
2022-12-29T00:20:45.081Z,5.17
2022-12-29T00:23:29.990Z,5.43
2022-12-29T00:26:17.167Z,4.80
2022-12-29T00:29:03.098Z,5.67
2022-12-29T00:31:48.302Z,4.27
2022-12-29T00:34:33.666Z,6.20
2022-12-29T00:37:19.275Z,5.47
2022-12-29T00:40:04.782Z,5.70
2022-12-29T00:42:49.831Z,4.27
2022-12-29T00:45:34.780Z,4.20
2022-12-29T00:48:20.112Z,4.77
2022-12-29T00:51:05.779Z,5.53
2022-12-29T00:53:50.845Z,5.33
2022-12-29T00:56:36.049Z,5.53
2022-12-29T00:59:21.389Z,4.47
2022-12-29T01:02:08.325Z,3.83
2022-12-29T01:04:53.400Z,5.23
2022-12-29T01:07:38.893Z,4.70
2022-12-29T01:10:23.787Z,3.23
2022-12-29T01:13:09.171Z,3.40
2022-12-29T01:15:54.941Z,3.37
2022-12-29T01:18:40.508Z,4.03
2022-12-29T01:21:26.376Z,3.40
2022-12-29T01:24:11.688Z,3.03
2022-12-29T01:26:56.738Z,5.43
2022-12-29T01:29:42.242Z,2.40
2022-12-29T01:32:27.815Z,3.77
2022-12-29T01:35:13.278Z,3.07
2022-12-29T01:37:59.668Z,3.73
2022-12-29T01:40:46.650Z,4.70
2022-12-29T01:43:59.364Z,4.83
2022-12-29T01:46:50.075Z,3.57
2022-12-29T01:49:35.703Z,3.27
2022-12-29T01:52:20.605Z,4.47
2022-12-29T01:55:06.523Z,2.50
2022-12-29T01:57:54.740Z,2.17
2022-12-29T02:00:40.081Z,2.47
2022-12-29T02:03:27.129Z,4.63
2022-12-29T02:06:23.385Z,3.10
2022-12-29T02:09:08.445Z,2.67
2022-12-29T02:11:54.546Z,2.67
2022-12-29T02:14:39.511Z,2.03
2022-12-29T02:17:37.907Z,5.07
2022-12-29T02:20:50.603Z,1.73
2022-12-29T02:24:13.260Z,5.00
2022-12-29T02:27:17.189Z,2.17
2022-12-29T02:30:16.554Z,2.40
2022-12-29T02:33:06.991Z,2.30
2022-12-29T02:36:06.183Z,2.77
2022-12-29T02:39:36.900Z,1.57
2022-12-29T02:42:39.834Z,0.97
2022-12-29T02:45:38.541Z,1.33
2022-12-29T02:48:32.475Z,1.00
2022-12-29T02:51:59.357Z,1.80
2022-12-29T02:54:44.827Z,0.83
2022-12-29T02:57:35.898Z,1.60
2022-12-29T03:00:21.101Z,1.13
2022-12-29T03:03:25.863Z,1.83
2022-12-29T03:06:55.556Z,1.43
2022-12-29T03:09:47.620Z,2.00
2022-12-29T03:12:48.907Z,1.63
2022-12-29T03:16:03.147Z,1.17
2022-12-29T03:18:56.572Z,1.87
2022-12-29T03:21:50.316Z,2.23
2022-12-29T03:24:41.388Z,1.63
2022-12-29T03:27:31.726Z,0.60
2022-12-29T03:30:18.449Z,0.70
2022-12-29T03:33:07.714Z,1.57
2022-12-29T03:35:57.960Z,1.67
2022-12-29T03:38:58.896Z,0.73
2022-12-29T03:41:46.160Z,1.50
2022-12-29T03:44:43.855Z,1.60
2022-12-29T03:47:29.415Z,3.97
2022-12-29T03:50:14.353Z,3.83
2022-12-29T03:52:59.514Z,2.50
2022-12-29T03:55:44.428Z,3.30
2022-12-29T03:58:30.674Z,1.07
2022-12-29T04:01:16.214Z,2.73
2022-12-29T04:04:03.119Z,1.30
2022-12-29T04:06:48.347Z,1.17
2022-12-29T04:09:33.273Z,3.10
2022-12-29T04:12:18.209Z,1.40
2022-12-29T04:15:03.810Z,1.27
2022-12-29T04:17:48.935Z,2.30
2022-12-29T04:20:34.496Z,2.33
2022-12-29T04:23:19.314Z,3.60
2022-12-29T04:26:04.826Z,1.47
2022-12-29T04:28:49.885Z,2.43
2022-12-29T04:31:34.821Z,5.23
2022-12-29T04:34:20.287Z,3.07
2022-12-29T04:37:05.440Z,2.37
2022-12-29T04:39:50.455Z,4.43
2022-12-29T04:42:35.620Z,2.17
2022-12-29T04:45:20.851Z,2.23
2022-12-29T04:48:06.516Z,1.23
2022-12-29T04:50:51.751Z,3.67
2022-12-29T04:53:36.953Z,2.10
2022-12-29T04:56:22.226Z,1.93
2022-12-29T04:59:07.304Z,2.10
2022-12-29T05:01:52.916Z,3.50
2022-12-29T05:04:38.153Z,2.47
2022-12-29T05:07:23.581Z,4.13
2022-12-29T05:10:09.292Z,0.73
2022-12-29T05:12:54.839Z,1.47
2022-12-29T05:15:40.108Z,2.37
2022-12-29T05:18:25.379Z,1.87
2022-12-29T05:21:10.325Z,1.40
2022-12-29T05:23:55.648Z,2.83
2022-12-29T05:26:40.994Z,1.87
2022-12-29T05:29:26.391Z,2.20
2022-12-29T05:32:11.219Z,2.33
2022-12-29T05:34:56.115Z,2.97
2022-12-29T05:37:41.139Z,2.77
2022-12-29T05:40:26.375Z,3.57
2022-12-29T05:43:11.320Z,2.07
2022-12-29T05:45:56.843Z,4.50
2022-12-29T05:48:42.089Z,3.40
2022-12-29T05:51:27.228Z,1.73
2022-12-29T05:54:13.047Z,2.70
2022-12-29T05:56:57.868Z,1.73
2022-12-29T05:59:43.368Z,3.17
2022-12-29T06:02:28.311Z,2.13
2022-12-29T06:05:13.675Z,2.27
2022-12-29T06:07:58.853Z,1.67
2022-12-29T06:10:44.253Z,4.10
2022-12-29T06:13:29.257Z,2.07
2022-12-29T06:16:14.436Z,4.43
2022-12-29T06:18:59.526Z,2.83
2022-12-29T06:21:44.275Z,3.33
2022-12-29T06:24:29.330Z,1.53
2022-12-29T06:27:14.327Z,2.00
2022-12-29T06:29:59.583Z,2.17
2022-12-29T06:32:45.305Z,3.97
2022-12-29T06:35:30.715Z,4.50
2022-12-29T06:38:15.890Z,4.43
2022-12-29T06:41:01.536Z,4.70
2022-12-29T06:43:46.411Z,4.30
2022-12-29T06:46:31.235Z,3.73
2022-12-29T06:49:16.355Z,4.97
2022-12-29T06:52:05.095Z,3.07
2022-12-29T06:54:54.152Z,5.27
2022-12-29T06:57:39.143Z,5.97
2022-12-29T07:00:25.680Z,3.20
2022-12-29T07:03:10.933Z,5.13
2022-12-29T07:05:56.535Z,3.00
2022-12-29T07:08:41.316Z,4.60
2022-12-29T07:11:26.632Z,5.03
2022-12-29T07:14:12.781Z,3.90
2022-12-29T07:16:57.720Z,8.00
2022-12-29T07:19:43.154Z,5.10
2022-12-29T07:22:27.905Z,3.97
2022-12-29T07:25:12.843Z,6.73
2022-12-29T07:27:58.325Z,8.17
2022-12-29T07:30:43.224Z,7.10
2022-12-29T07:33:32.674Z,8.77
2022-12-29T07:36:17.879Z,8.03
2022-12-29T07:39:03.823Z,4.93
2022-12-29T07:41:48.943Z,6.27
2022-12-29T07:44:41.159Z,6.57
2022-12-29T07:47:26.958Z,7.20
2022-12-29T07:50:12.113Z,6.70
2022-12-29T07:52:57.065Z,7.77
2022-12-29T07:55:42.313Z,7.50
2022-12-29T07:58:27.234Z,7.97
2022-12-29T08:01:12.245Z,7.03
2022-12-29T08:03:58.079Z,13.07
2022-12-29T08:06:43.736Z,5.10
2022-12-29T08:09:28.792Z,7.37
2022-12-29T08:12:13.832Z,4.13
2022-12-29T08:14:59.109Z,8.77
2022-12-29T08:17:44.214Z,5.90
2022-12-29T08:20:29.281Z,4.70
2022-12-29T08:23:14.603Z,6.10
2022-12-29T08:26:01.095Z,9.63
2022-12-29T08:28:46.198Z,7.10
2022-12-29T08:31:31.541Z,6.47
2022-12-29T08:34:16.812Z,7.17
2022-12-29T08:37:02.365Z,7.13
2022-12-29T08:39:47.425Z,6.50
2022-12-29T08:42:32.609Z,7.33
2022-12-29T08:45:17.583Z,11.77
2022-12-29T08:48:02.716Z,9.10
2022-12-29T08:50:49.758Z,7.50
2022-12-29T08:53:35.334Z,8.27
2022-12-29T08:56:20.393Z,7.53
2022-12-29T08:59:05.288Z,7.40
2022-12-29T09:01:50.389Z,9.10
2022-12-29T09:04:35.735Z,9.30
2022-12-29T09:07:21.018Z,10.43
2022-12-29T09:10:06.368Z,10.37
2022-12-29T09:12:52.551Z,11.27
2022-12-29T09:15:38.539Z,9.93
2022-12-29T09:18:23.957Z,10.07
2022-12-29T09:21:11.540Z,9.93
2022-12-29T09:23:56.666Z,9.47
2022-12-29T09:26:46.979Z,12.27
2022-12-29T09:29:32.641Z,7.40
2022-12-29T09:32:18.796Z,8.10
2022-12-29T09:35:05.648Z,9.00
2022-12-29T09:37:50.969Z,10.80
2022-12-29T09:40:36.338Z,12.50
2022-12-29T09:43:38.263Z,10.97
2022-12-29T09:46:36.452Z,9.47
2022-12-29T09:49:33.787Z,7.27
2022-12-29T09:52:24.393Z,10.60
2022-12-29T09:55:14.792Z,9.13
2022-12-29T09:58:06.275Z,11.67
2022-12-29T10:00:57.131Z,12.80
2022-12-29T10:03:55.648Z,10.23
2022-12-29T10:10:02.706Z,9.47
2022-12-29T10:13:16.124Z,13.20
2022-12-29T10:16:10.005Z,11.10
2022-12-29T10:19:33.183Z,12.43
2022-12-29T10:22:37.026Z,12.63
2022-12-29T10:25:31.093Z,11.13
2022-12-29T10:28:43.638Z,12.30
2022-12-29T10:31:38.993Z,10.10
2022-12-29T10:34:26.800Z,11.77
2022-12-29T10:37:31.893Z,7.77
2022-12-29T10:40:26.445Z,8.73
2022-12-29T10:43:27.736Z,14.73
2022-12-29T10:46:17.292Z,11.30
2022-12-29T10:49:02.615Z,9.67
2022-12-29T10:51:51.271Z,8.87
2022-12-29T10:54:52.184Z,12.63
2022-12-29T10:57:45.388Z,12.47
2022-12-29T11:00:30.967Z,9.20
2022-12-29T11:03:28.437Z,13.80
2022-12-29T11:06:18.992Z,12.47
2022-12-29T11:09:16.018Z,8.80
2022-12-29T11:12:01.707Z,8.17
2022-12-29T11:14:47.632Z,11.20
2022-12-29T11:17:44.115Z,9.87
2022-12-29T11:20:29.405Z,10.13
2022-12-29T11:23:35.891Z,6.40
2022-12-29T11:26:25.359Z,9.20
2022-12-29T11:29:22.332Z,13.47
2022-12-29T11:32:28.525Z,12.60
2022-12-29T11:35:31.800Z,8.10
2022-12-29T11:38:24.275Z,11.50
2022-12-29T11:41:14.024Z,10.10
2022-12-29T11:44:03.281Z,10.83
2022-12-29T11:46:52.073Z,11.10
2022-12-29T11:49:37.306Z,10.20
2022-12-29T11:52:26.551Z,9.67
2022-12-29T11:55:25.988Z,9.97
2022-12-29T11:58:16.759Z,9.90
2022-12-29T12:01:07.779Z,12.43
2022-12-29T12:04:03.503Z,9.67
2022-12-29T12:07:10.561Z,10.83
2022-12-29T12:10:07.463Z,9.23
2022-12-29T12:13:21.576Z,6.57
2022-12-29T12:16:16.349Z,8.03
2022-12-29T12:19:11.691Z,11.73
2022-12-29T12:22:20.002Z,13.03
2022-12-29T12:25:30.266Z,7.27
2022-12-29T12:28:30.544Z,12.57
2022-12-29T12:31:40.011Z,13.03
2022-12-29T12:34:31.654Z,8.50
2022-12-29T12:37:23.811Z,8.30
2022-12-29T12:40:23.736Z,12.93
2022-12-29T12:43:27.728Z,10.37
2022-12-29T12:46:23.382Z,12.43
2022-12-29T12:49:08.418Z,7.23
2022-12-29T12:52:05.400Z,8.40
2022-12-29T12:54:54.041Z,11.47
2022-12-29T12:57:54.192Z,10.00
2022-12-29T13:00:55.244Z,9.77
2022-12-29T13:04:17.966Z,11.17
2022-12-29T13:07:27.384Z,8.57
2022-12-29T13:10:31.744Z,15.13
2022-12-29T13:13:23.250Z,12.13
2022-12-29T13:16:21.669Z,13.97
2022-12-29T13:19:14.220Z,9.77
2022-12-29T13:22:24.316Z,13.63
2022-12-29T13:25:27.930Z,13.93
2022-12-29T13:28:39.115Z,8.87
2022-12-29T13:31:41.605Z,14.17
2022-12-29T13:34:39.961Z,12.57
2022-12-29T13:37:29.039Z,13.33
2022-12-29T13:40:18.862Z,10.30
2022-12-29T13:43:04.178Z,12.17
2022-12-29T13:46:00.203Z,12.63
2022-12-29T13:49:00.897Z,12.30
2022-12-29T13:51:51.623Z,12.57
2022-12-29T13:54:55.780Z,13.63
2022-12-29T13:57:50.221Z,12.47
2022-12-29T14:00:57.504Z,14.07
2022-12-29T14:03:47.639Z,19.73
2022-12-29T14:06:36.315Z,11.33
2022-12-29T14:09:31.854Z,17.73
2022-12-29T14:12:33.987Z,12.87
2022-12-29T14:15:24.794Z,10.03
2022-12-29T14:18:17.622Z,13.60
2022-12-29T14:21:21.551Z,11.33
2022-12-29T14:24:34.782Z,15.07
2022-12-29T14:27:20.188Z,11.47
2022-12-29T14:30:43.866Z,12.20
2022-12-29T14:33:31.842Z,11.10
2022-12-29T14:36:33.965Z,14.70
2022-12-29T14:39:30.251Z,12.43
2022-12-29T14:42:21.161Z,12.13
2022-12-29T14:45:30.093Z,17.53
2022-12-29T14:48:38.212Z,13.40
2022-12-29T14:51:37.258Z,15.40
2022-12-29T14:54:43.064Z,12.60
2022-12-29T14:57:30.804Z,14.53
2022-12-29T15:00:20.541Z,15.00
2022-12-29T15:03:07.489Z,12.80
2022-12-29T15:06:09.641Z,14.07
2022-12-29T15:09:11.995Z,11.63
2022-12-29T15:12:05.640Z,14.67
2022-12-29T15:14:56.901Z,14.90
2022-12-29T15:17:42.223Z,11.00
2022-12-29T15:20:30.886Z,16.73
2022-12-29T15:23:17.724Z,13.90
2022-12-29T15:26:08.484Z,12.47
2022-12-29T15:28:54.136Z,14.40
2022-12-29T15:31:47.703Z,11.47
2022-12-29T15:34:32.945Z,12.73
2022-12-29T15:37:28.553Z,11.43
2022-12-29T15:40:24.258Z,10.63
2022-12-29T15:43:30.247Z,17.40
2022-12-29T15:46:15.874Z,13.60
2022-12-29T15:49:06.907Z,13.47
2022-12-29T15:51:51.936Z,12.17
2022-12-29T15:54:38.710Z,12.60
2022-12-29T15:57:44.714Z,13.80
2022-12-29T16:00:35.959Z,12.57
2022-12-29T16:03:23.355Z,14.00
2022-12-29T16:06:27.605Z,10.50
2022-12-29T16:09:18.022Z,13.00
2022-12-29T16:12:16.072Z,14.73
2022-12-29T16:15:13.883Z,12.70
2022-12-29T16:17:59.458Z,12.00
2022-12-29T16:20:44.669Z,13.67
2022-12-29T16:23:31.214Z,15.40
2022-12-29T16:26:19.039Z,16.77
2022-12-29T16:29:07.870Z,13.07
2022-12-29T16:31:54.737Z,12.97
2022-12-29T16:34:40.141Z,12.20
2022-12-29T16:37:29.869Z,12.60
2022-12-29T16:40:28.744Z,13.90
2022-12-29T16:43:23.697Z,13.37
2022-12-29T16:46:21.517Z,13.17
2022-12-29T16:49:23.208Z,10.20
2022-12-29T16:52:19.682Z,14.80
2022-12-29T16:55:05.841Z,9.20
2022-12-29T16:57:54.456Z,10.87
2022-12-29T17:00:39.579Z,13.93
2022-12-29T17:03:31.903Z,12.40
2022-12-29T17:06:19.198Z,12.47
2022-12-29T17:09:18.137Z,10.77
2022-12-29T17:12:10.842Z,10.30
2022-12-29T17:15:01.886Z,11.23
2022-12-29T17:17:48.938Z,13.93
2022-12-29T17:20:34.098Z,9.83
2022-12-29T17:23:26.137Z,9.50
2022-12-29T17:26:13.705Z,12.03
2022-12-29T17:28:59.050Z,15.20
2022-12-29T17:31:44.440Z,11.50
2022-12-29T17:34:30.185Z,14.93
2022-12-29T17:37:24.219Z,11.83
2022-12-29T17:40:14.834Z,15.53
2022-12-29T17:43:00.148Z,15.20
2022-12-29T17:45:52.694Z,9.40
2022-12-29T17:48:37.725Z,11.47
2022-12-29T17:51:23.409Z,12.63
2022-12-29T17:54:20.545Z,8.87
2022-12-29T17:57:05.793Z,23.93
2022-12-29T17:59:51.189Z,13.07
2022-12-29T18:02:36.280Z,12.23
2022-12-29T18:05:27.640Z,13.77
2022-12-29T18:08:13.182Z,13.27
2022-12-29T18:10:58.962Z,15.50
2022-12-29T18:13:46.907Z,14.23
2022-12-29T18:16:32.582Z,15.73
2022-12-29T18:19:17.977Z,14.73
2022-12-29T18:22:03.509Z,14.63
2022-12-29T18:24:48.896Z,13.50
2022-12-29T18:27:33.839Z,13.87
2022-12-29T18:30:19.153Z,15.63
2022-12-29T18:33:04.914Z,17.90
2022-12-29T18:35:56.365Z,14.37
2022-12-29T18:38:41.914Z,14.90
2022-12-29T18:41:28.984Z,11.13
2022-12-29T18:44:14.014Z,12.60
2022-12-29T18:46:59.596Z,10.40
2022-12-29T18:49:45.019Z,6.90
2022-12-29T18:52:30.374Z,10.23
2022-12-29T18:55:18.268Z,10.00
2022-12-29T18:58:03.480Z,3.30
2022-12-29T19:00:48.886Z,7.40
2022-12-29T19:03:36.961Z,9.10
2022-12-29T19:06:23.273Z,6.70
2022-12-29T19:09:08.513Z,8.43
2022-12-29T19:11:54.440Z,10.93
2022-12-29T19:14:39.570Z,5.67
2022-12-29T19:17:25.070Z,8.57
2022-12-29T19:20:25.541Z,9.50
2022-12-29T19:23:13.228Z,8.33
2022-12-29T19:25:58.548Z,8.93
2022-12-29T19:28:43.784Z,9.27
2022-12-29T19:31:29.170Z,9.57
2022-12-29T19:34:15.743Z,7.40
2022-12-29T19:37:01.212Z,8.27
2022-12-29T19:39:46.420Z,10.37
2022-12-29T19:42:31.695Z,9.10
2022-12-29T19:45:17.040Z,9.30
2022-12-29T19:48:02.013Z,8.07
2022-12-29T19:50:47.939Z,9.67
2022-12-29T19:53:34.023Z,10.53
2022-12-29T19:56:19.605Z,8.17
2022-12-29T19:59:04.779Z,12.80
2022-12-29T20:01:50.575Z,10.67
2022-12-29T20:04:35.655Z,8.80
2022-12-29T20:07:21.417Z,8.37
2022-12-29T20:10:07.909Z,15.20
2022-12-29T20:12:53.161Z,10.23
2022-12-29T20:15:43.379Z,9.93
2022-12-29T20:18:29.558Z,14.23
2022-12-29T20:21:21.823Z,11.57
2022-12-29T20:24:07.148Z,16.90
2022-12-29T20:26:52.687Z,15.03
2022-12-29T20:29:43.000Z,12.53
2022-12-29T20:32:28.364Z,17.43
2022-12-29T20:35:13.875Z,13.90
2022-12-29T20:37:59.117Z,18.37
2022-12-29T20:40:46.597Z,18.33
2022-12-29T20:43:32.503Z,17.17
2022-12-29T20:46:21.305Z,17.20
2022-12-29T20:49:07.204Z,16.17
2022-12-29T20:52:07.872Z,18.30
2022-12-29T20:54:53.979Z,18.10
2022-12-29T20:58:14.172Z,16.83
2022-12-29T21:00:44.898Z,14.53
2022-12-29T21:03:30.171Z,18.93
2022-12-29T21:06:15.641Z,18.10
2022-12-29T21:09:01.253Z,18.67
2022-12-29T21:11:47.979Z,23.97
2022-12-29T21:14:33.143Z,19.03
2022-12-29T21:17:18.472Z,21.50
2022-12-29T21:20:03.840Z,20.23
2022-12-29T21:22:49.030Z,20.40
2022-12-29T21:25:34.473Z,21.03
2022-12-29T21:28:21.492Z,27.70
2022-12-29T21:31:28.561Z,22.37
2022-12-29T21:34:13.677Z,20.67
2022-12-29T21:36:59.114Z,20.33
2022-12-29T21:39:44.035Z,23.97
2022-12-29T21:42:29.178Z,22.87
2022-12-29T21:45:20.221Z,23.07
2022-12-29T21:48:06.825Z,21.17
2022-12-29T21:50:54.704Z,25.70
2022-12-29T21:53:43.151Z,22.57
2022-12-29T21:56:28.128Z,19.57
2022-12-29T21:59:14.591Z,22.57
2022-12-29T22:02:03.030Z,24.73
2022-12-29T22:04:48.509Z,21.83
2022-12-29T22:07:38.015Z,22.40
2022-12-29T22:10:26.381Z,21.80
2022-12-29T22:13:11.698Z,31.37
2022-12-29T22:15:56.847Z,23.33
2022-12-29T22:18:41.935Z,28.07
2022-12-29T22:21:27.186Z,23.17
2022-12-29T22:24:12.520Z,23.93
2022-12-29T22:26:57.391Z,16.60
2022-12-29T22:29:42.379Z,17.70
2022-12-29T22:32:28.428Z,25.53
2022-12-29T22:35:14.245Z,15.57
2022-12-29T22:38:05.343Z,20.10
2022-12-29T22:40:50.508Z,19.67
2022-12-29T22:43:38.967Z,23.63
2022-12-29T22:46:24.289Z,18.47
2022-12-29T22:49:09.663Z,21.77
2022-12-29T22:51:55.183Z,22.00
2022-12-29T22:54:40.529Z,19.20
2022-12-29T22:57:25.871Z,21.50
2022-12-29T23:00:11.751Z,20.57
2022-12-29T23:02:57.266Z,16.43
2022-12-29T23:05:42.900Z,18.67
2022-12-29T23:08:32.978Z,18.47
2022-12-29T23:11:18.159Z,22.80
2022-12-29T23:14:03.663Z,20.90
2022-12-29T23:16:49.047Z,21.00
2022-12-29T23:19:34.595Z,21.50
2022-12-29T23:22:20.239Z,22.57
2022-12-29T23:25:05.957Z,17.93
2022-12-29T23:27:51.143Z,19.07
2022-12-29T23:30:35.960Z,21.70
2022-12-29T23:33:20.989Z,19.10
2022-12-29T23:36:07.099Z,20.17
2022-12-29T23:38:52.423Z,18.87
2022-12-29T23:41:37.819Z,23.30
2022-12-29T23:44:23.098Z,17.87
2022-12-29T23:47:08.793Z,22.13
2022-12-29T23:49:53.873Z,16.70
2022-12-29T23:52:39.201Z,19.33
2022-12-29T23:55:24.246Z,19.27
2022-12-29T23:58:09.692Z,22.10
